• Join FlightAware (Why Join?)
  • Login
  • US Flag 
 
07:28PM EST


 

Airport Tracker/Info


-or-


 

Live Flight TrackerFlight Track Log ✈ AAL2007 ✈ 09-Jun-2013 ✈ KORD - KAUS

Flight Track Log - Related Links

Times and Time Zones

All times are in EDT time to prevent confusion due to time zone crossing. See the AAL2007 flight status page for this flight to view local times or setup timezone preferences in your user account.

Time Position Orientation Groundspeed Altitude Reporting Facility
EDT Latitude Longitude Course Direction KTS MPH feet Rate Location/Type
06:10PM 41.9500 -87.9167 217° Southwest 186 214 1,600  Level Chicago TRACON
06:11PM 41.9000 -87.9667 217° Southwest 235 270 3,500 1,620 Climbing Chicago TRACON
06:12PM 41.8500 -88.0333 225° Southwest 264 304 4,900 1,380 Climbing Chicago TRACON
06:12PM 41.8372 -88.0522 228° Southwest 259 298 5,400 1,680 Climbing Chicago Center
06:13PM 41.7856 -88.1175 223° Southwest 261 300 7,300 2,160 Climbing Chicago Center
06:14PM 41.7639 -88.2247 255° West 294 338 10,000 2,460 Climbing Chicago Center
06:15PM 41.8158 -88.3081 310° West 295 339 12,400 1,440 Climbing Chicago Center
06:16PM 41.8069 -88.4125 264° West 295 339 13,000 480 Climbing Chicago Center
06:17PM 41.7994 -88.5236 265° West 303 349 13,400 900 Climbing Chicago Center
06:18PM 41.7608 -88.6456 247° West 297 342 14,900 1,500 Climbing Chicago Center
06:19PM 41.7375 -88.7678 256° West 331 381 16,600 2,220 Climbing Chicago Center
06:20PM 41.7119 -88.8956 255° West 354 407 19,600 2,160 Climbing Chicago Center
06:21PM 41.6839 -89.0131 252° West 338 389 21,100 1,680 Climbing Chicago Center
06:22PM 41.6558 -89.1397 254° West 355 409 23,100 1,740 Climbing Chicago Center
06:23PM 41.6253 -89.2981 256° West 368 423 24,800 1,440 Climbing Chicago Center
06:24PM 41.5975 -89.4328 255° West 377 434 26,100 1,260 Climbing Chicago Center
06:25PM 41.5683 -89.5772 255° West 386 444 27,500 900 Climbing Chicago Center
06:27PM 41.5297 -89.7150 250° West 396 456 28,000 1,140 Climbing Chicago Center
06:28PM 41.4947 -89.8600 252° West 408 470 29,900 1,260 Climbing Chicago Center
06:29PM 41.4650 -90.0053 255° West 408 470 30,700 960 Climbing Chicago Center
06:30PM 41.4331 -90.1506 254° West 410 472 31,900 1,200 Climbing Chicago Center
06:31PM 41.3947 -90.3217 253° West 406 467 33,300 900 Climbing Chicago Center
06:32PM 41.3619 -90.4636 253° West 403 464 33,800 300 Climbing Chicago Center
06:33PM 41.3253 -90.6056 251° West 406 467 34,000 60 Climbing Chicago Center
06:34PM 41.2633 -90.7394 238° Southwest 418 481 34,000  Level Chicago Center
06:35PM 41.1936 -90.8578 232° Southwest 408 470 34,000  Level Chicago Center
06:36PM 41.1072 -91.0014 231° Southwest 414 476 34,000  Level Chicago Center
06:37PM 41.0353 -91.1214 232° Southwest 417 480 34,000  Level Chicago Center
06:38PM 40.9633 -91.2422 232° Southwest 418 481 34,000  Level Chicago Center
06:39PM 40.8908 -91.3642 232° Southwest 418 481 34,000  Level Chicago Center
06:40PM 40.8167 -91.4853 231° Southwest 426 490 34,000  Level Chicago Center
06:41PM 40.7444 -91.6039 231° Southwest 420 483 34,000  Level Chicago Center
06:42PM 40.6550 -91.7508 231° Southwest 427 491 34,000  Level Chicago Center
06:43PM 40.6089 -91.8225 230° Southwest 427 491 34,000  Level Kansas City Center
06:44PM 40.5333 -91.9478 232° Southwest 433 498 34,000  Level Kansas City Center
06:45PM 40.4408 -92.1000 231° Southwest 444 511 34,000  Level Kansas City Center
06:46PM 40.3639 -92.2242 231° Southwest 441 507 34,000  Level Kansas City Center
06:47PM 40.2819 -92.3553 231° Southwest 435 501 34,000  Level Kansas City Center
06:48PM 40.2067 -92.4714 230° Southwest 437 503 34,000  Level Kansas City Center
06:49PM 40.1211 -92.6072 231° Southwest 430 495 34,000  Level Kansas City Center
06:50PM 40.0339 -92.6994 219° Southwest 444 511 34,000  Level Kansas City Center
06:51PM 39.9378 -92.7983 218° Southwest 444 511 34,000  Level Kansas City Center
06:52PM 39.8217 -92.9197 219° Southwest 448 516 34,000  Level Kansas City Center
06:53PM 39.7242 -93.0236 219° Southwest 454 522 34,000  Level Kansas City Center
06:54PM 39.6256 -93.1217 217° Southwest 451 519 34,000  Level Kansas City Center
06:55PM 39.5261 -93.2233 218° Southwest 456 525 34,000  Level Kansas City Center
06:56PM 39.4275 -93.3256 219° Southwest 457 526 34,000  Level Kansas City Center
06:57PM 39.3286 -93.4261 218° Southwest 456 525 34,000  Level Kansas City Center
06:58PM 39.2067 -93.5536 219° Southwest 458 527 34,000  Level Kansas City Center
06:59PM 39.1103 -93.6522 218° Southwest 460 529 34,000  Level Kansas City Center
07:00PM 39.0122 -93.7517 218° Southwest 466 536 34,000  Level Kansas City Center
07:01PM 38.8986 -93.8667 218° Southwest 463 533 34,000  Level Kansas City Center
07:02PM 38.7986 -93.9669 218° Southwest 471 542 34,000  Level Kansas City Center
07:03PM 38.6833 -94.0836 218° Southwest 472 543 34,000  Level Kansas City Center
07:04PM 38.5828 -94.1831 218° Southwest 474 545 34,000  Level Kansas City Center
07:05PM 38.4653 -94.2989 218° Southwest 476 548 34,000  Level Kansas City Center
07:07PM 38.3639 -94.3981 217° Southwest 477 549 34,000  Level Kansas City Center
07:08PM 38.2608 -94.4950 216° Southwest 480 552 34,000  Level Kansas City Center
07:09PM 38.1256 -94.5817 207° Southwest 486 559 34,000  Level Kansas City Center
07:10PM 38.0103 -94.6561 207° Southwest 484 557 34,000  Level Kansas City Center
07:11PM 37.8756 -94.7425 207° Southwest 484 557 34,000  Level Kansas City Center
07:12PM 37.7592 -94.8164 207° Southwest 486 559 34,000  Level Kansas City Center
07:13PM 37.6386 -94.8925 207° Southwest 484 557 34,000  Level Kansas City Center
07:14PM 37.5197 -94.9672 207° Southwest 479 551 34,000  Level Kansas City Center
07:15PM 37.3789 -95.0575 207° Southwest 474 545 34,000  Level Kansas City Center
07:16PM 37.2614 -95.1306 206° Southwest 472 543 34,000  Level Kansas City Center
07:17PM 37.1436 -95.2050 207° Southwest 472 543 34,000  Level Kansas City Center
07:18PM 37.0281 -95.2781 207° Southwest 469 540 34,000  Level Kansas City Center
07:19PM 36.9108 -95.3514 207° Southwest 470 541 34,000  Level Kansas City Center
07:20PM 36.7956 -95.4222 206° Southwest 464 534 34,000  Level Kansas City Center
07:21PM 36.6800 -95.4939 206° Southwest 464 534 34,000  Level Kansas City Center
07:22PM 36.5453 -95.5767 206° Southwest 472 543 34,000  Level Kansas City Center
07:23PM 36.4253 -95.6503 206° Southwest 478 550 34,000  Level Kansas City Center
07:24PM 36.3058 -95.7219 206° Southwest 477 549 34,000  Level Kansas City Center
07:25PM 36.1847 -95.7942 206° Southwest 479 551 34,000  Level Kansas City Center
07:26PM 36.0594 -95.8508 200° South 480 552 34,000  Level Kansas City Center
07:27PM 35.9072 -95.9156 199° South 481 554 34,000  Level Kansas City Center
07:28PM 35.7814 -95.9708 200° South 481 554 34,000  Level Kansas City Center
07:29PM 35.6564 -96.0244 199° South 479 551 34,000  Level Kansas City Center
07:30PM 35.5294 -96.0761 198° South 476 548 34,000  Level Kansas City Center
07:31PM 35.4050 -96.1317 200° South 475 547 34,000  Level Kansas City Center
07:32PM 35.3500 -96.1536 198° South 487 560 34,000  Level Fort Worth Center
07:33PM 35.2294 -96.2064 200° South 482 555 34,000  Level Fort Worth Center
07:34PM 35.1047 -96.2614 200° South 482 555 34,000  Level Fort Worth Center
07:35PM 34.9800 -96.3139 199° South 477 549 34,000  Level Fort Worth Center
07:36PM 34.8617 -96.3633 199° South 471 542 34,000  Level Fort Worth Center
07:37PM 34.7411 -96.4153 199° South 466 536 34,000  Level Fort Worth Center
07:38PM 34.6164 -96.4672 199° South 466 536 34,000  Level Fort Worth Center
07:39PM 34.4936 -96.5192 199° South 466 536 34,000  Level Fort Worth Center
07:40PM 34.3689 -96.5731 200° South 466 536 34,000  Level Fort Worth Center
07:41PM 34.2481 -96.6219 198° South 466 536 34,000  Level Fort Worth Center
07:42PM 34.1253 -96.6758 200° South 466 536 34,000  Level Fort Worth Center
07:43PM 34.0067 -96.7219 198° South 459 528 34,000  Level Fort Worth Center
07:44PM 33.8836 -96.7731 199° South 466 536 34,000  Level Fort Worth Center
07:45PM 33.7650 -96.8239 200° South 466 536 34,000  Level Fort Worth Center
07:46PM 33.6483 -96.8719 199° South 461 531 34,000  Level Fort Worth Center
07:47PM 33.5297 -96.9225 200° South 456 525 34,000  Level Fort Worth Center
07:48PM 33.4108 -96.9681 198° South 456 525 34,000  Level Fort Worth Center
07:49PM 33.2942 -97.0158 199° South 451 519 34,000  Level Fort Worth Center
07:50PM 33.1772 -97.0636 199° South 445 512 34,000  Level Fort Worth Center
07:51PM 33.0606 -97.1111 199° South 445 512 34,000  Level Fort Worth Center
07:52PM 32.9394 -97.1583 198° South 457 526 34,000  Level Fort Worth Center
07:53PM 32.8103 -97.1861 190° South 467 537 34,000 -1,200 Level Fort Worth Center
07:54PM 32.6828 -97.1961 184° South 467 537 31,700 -1,740 Descending Fort Worth Center
07:56PM 32.4325 -97.2164 184° South 481 554 28,900 -1,440 Descending Fort Worth Center
07:57PM 32.3072 -97.2242 183° South 471 542 27,400 -1,500 Descending Fort Worth Center
07:58PM 32.1839 -97.2342 184° South 459 528 25,900 -1,500 Descending Fort Worth Center
07:59PM 32.0608 -97.2442 184° South 448 516 24,400 -3,000 Descending Fort Worth Center
08:00PM 31.9292 -97.2517 183° South 441 507 20,000 -1,620 Descending Fort Worth Center
08:01PM 31.8083 -97.2594 183° South 436 502 21,200  Climbing Fort Worth Center
08:02PM 31.6914 -97.2694 184° South 436 502 20,000 -600 Descending Fort Worth Center
08:03PM 31.5744 -97.2597 176° South 429 494 20,000  Level Fort Worth Center
08:03PM 31.5356 -97.2539 173° South 420 483 20,000  Level Houston Center
08:04PM 31.4192 -97.2367 173° South 418 481 20,000  Level Houston Center
08:05PM 31.3044 -97.2225 174° South 411 473 20,000 -960 Level Houston Center
08:06PM 31.1919 -97.2339 185° South 411 473 18,100 -1,920 Descending Houston Center
08:07PM 31.0878 -97.2744 198° South 395 455 16,100 -2,160 Descending Houston Center
08:08PM 30.9711 -97.3139 196° South 381 438 13,700 -1,500 Descending Houston Center
08:09PM 30.8719 -97.3456 195° South 380 437 13,000 -360 Descending Houston Center
08:10PM 30.7728 -97.3778 196° South 372 428 13,000 -480 Level Houston Center
08:11PM 30.6756 -97.4172 199° South 369 425 12,100 -1,140 Descending Houston Center
08:12PM 30.5811 -97.4531 198° South 356 410 10,700 -1,320 Descending Houston Center
08:13PM 30.4950 -97.5083 209° Southwest 300 345 9,400 -1,860 Descending Houston Center
08:14PM 30.4475 -97.5736 230° Southwest 268 308 6,900 -2,220 Descending Houston Center
08:15PM 30.4242 -97.6464 250° West 249 287 4,900 -1,620 Descending Houston Center
08:16PM 30.3636 -97.6628 193° South 223 257 3,700 -1,200 Descending Houston Center
08:17PM 30.3092 -97.6606 178° South 201 231 2,500 -1,020 Descending Houston Center
08:18PM 30.2614 -97.6592 179° South 185 213 1,600 -840 Descending Houston Center
08:19PM 30.2239 -97.6592 180° South 151 174 800 -780 Descending Houston Center